Latest Weather Observations for Robe Airport

IDS60801

Issued at 12:02 am CST Tuesday 26 September 2017 (issued every 30 minutes, with the page automatically refreshed every 10 minutes)

About weather observations | Map of weather stations | Latest weather observations for SA | Other Formats
Station Details ID: 026105 Name: ROBE AIRFIELD Lat: -37.18 Lon: 139.81 Height: 3.0 m
Data from the previous 72 hours. | See also: Recent months at Robe Airport
Date/Time
CST
Temp
°C
App
Temp
°C
Dew
Point
°C
Rel
Hum
%
Delta-T
°C
Wind Press
QNH
hPa
Press
MSL
hPa
Rain since
9am
mm
Dir  Spd
km/h
Gust
km/h
Spd
kts
Gust
kts
26/12:00am 3.0 1.4 2.3 95 0.3 CALM 0 0 0 0 1017.0 1017.0 0.2
 
Date/Time
CST
Temp
°C
App
Temp
°C
Dew
Point
°C
Rel
Hum
%
Delta-T
°C
Wind Press
QNH
hPa
Press
MSL
hPa
Rain since
9am
mm
Dir  Spd
km/h
Gust
km/h
Spd
kts
Gust
kts
25/11:30pm 2.8 1.1 1.9 94 0.3 CALM 0 0 0 0 1017.2 1017.2 0.2
25/11:00pm 3.9 2.4 3.0 94 0.4 CALM 0 0 0 0 1017.2 1017.2 0.2
25/10:30pm 4.7 3.3 3.7 93 0.4 CALM 0 0 0 0 1017.3 1017.3 0.2
25/10:00pm 4.5 3.0 3.2 91 0.5 CALM 0 0 0 0 1017.1 1017.1 0.2
25/09:30pm 5.5 3.7 3.5 87 0.8 SSW 2 2 1 1 1016.9 1016.9 0.2
25/09:00pm 7.0 5.0 4.3 83 1.2 SSW 4 4 2 2 1016.9 1016.9 0.2
25/08:30pm 8.5 6.1 5.3 80 1.4 SW 7 7 4 4 1016.8 1016.8 0.2
25/08:00pm 8.9 6.7 6.2 83 1.2 SSW 7 9 4 5 1016.5 1016.5 0.2
25/07:30pm 10.2 7.2 6.2 76 1.9 SSW 11 17 6 9 1016.0 1016.0 0.2
25/07:00pm 9.5 7.1 5.3 75 1.9 SW 7 9 4 5 1015.5 1015.5 0.2
25/06:30pm 10.0 7.6 5.4 73 2.1 SW 7 11 4 6 1015.4 1015.4 0.2
25/06:00pm 10.9 8.6 5.7 70 2.4 SW 7 11 4 6 1015.2 1015.2 0.2
25/05:30pm 12.1 8.7 5.7 65 3.0 SW 13 19 7 10 1014.8 1014.8 0.2
25/05:00pm 13.1 9.4 6.5 64 3.2 SW 15 20 8 11 1014.5 1014.5 0.2
25/04:30pm 13.5 10.4 7.3 66 3.0 SSW 13 19 7 10 1014.3 1014.3 0.2
25/04:00pm 13.3 10.6 7.3 67 2.9 SW 11 20 6 11 1014.2 1014.2 0.2
25/03:30pm 13.8 10.5 6.2 60 3.6 WSW 13 22 7 12 1013.9 1013.9 0.2
25/03:00pm 14.2 10.0 5.8 57 4.0 SSW 17 24 9 13 1013.9 1013.9 0.2
25/02:30pm 14.1 10.6 7.4 64 3.3 SSW 15 22 8 12 1013.7 1013.7 0.2
25/02:00pm 14.3 10.7 6.9 61 3.6 SW 15 24 8 13 1013.7 1013.7 0.2
25/01:30pm 14.4 10.6 7.5 63 3.4 SW 17 24 9 13 1013.6 1013.6 0.2
25/01:00pm 14.6 10.8 7.4 62 3.5 SW 17 26 9 14 1013.4 1013.4 0.2
25/12:30pm 14.3 10.4 7.1 62 3.5 SW 17 28 9 15 1013.4 1013.4 0.2
25/12:00pm 14.7 11.0 8.0 64 3.3 SW 17 24 9 13 1013.3 1013.3 0.0
25/11:30am 14.9 10.9 8.2 64 3.4 SW 19 26 10 14 1012.9 1012.9 0.0
25/11:00am 14.2 10.1 7.7 65 3.2 SW 19 28 10 15 1012.6 1012.6 0.0
25/10:30am 14.2 10.3 7.3 63 3.4 SW 17 26 9 14 1012.6 1012.6 0.0
25/10:00am 14.3 10.6 8.0 66 3.1 SW 17 24 9 13 1012.6 1012.6 0.0
25/09:30am 14.3 11.2 8.9 70 2.7 SW 15 26 8 14 1012.4 1012.4 0.0
25/09:00am 12.6 10.0 7.7 72 2.4 WSW 11 17 6 9 1012.2 1012.2 1.8
25/08:30am 13.2 10.2 7.6 69 2.7 SW 13 22 7 12 1011.6 1011.6 1.8
25/08:00am 13.2 10.0 8.5 73 2.3 SW 15 22 8 12 1011.1 1011.1 1.8
25/07:30am 12.1 8.8 8.2 77 1.9 SSW 15 26 8 14 1010.5 1010.5 1.8
25/07:00am 12.0 8.5 7.1 72 2.4 SW 15 26 8 14 1010.0 1010.0 1.8
25/06:30am 11.7 8.8 6.6 71 2.4 SW 11 17 6 9 1009.6 1009.6 1.8
25/06:00am 11.6 7.9 6.3 70 2.5 SW 15 22 8 12 1009.2 1009.2 1.8
25/05:30am 11.2 8.6 7.7 79 1.7 WSW 11 19 6 10 1008.8 1008.8 1.8
25/05:00am 11.0 7.8 8.4 84 1.3 SW 15 26 8 14 1008.2 1008.2 1.8
25/04:30am 10.7 8.7 8.5 86 1.1 SW 9 17 5 9 1007.8 1007.8 1.8
25/04:00am 10.6 8.1 8.2 85 1.2 SW 11 19 6 10 1007.5 1007.5 1.8
25/03:30am 11.0 8.2 8.6 85 1.2 SW 13 22 7 12 1007.2 1007.2 1.8
25/03:00am 11.3 8.2 8.9 85 1.2 SW 15 26 8 14 1007.1 1007.1 1.8
25/02:30am 11.4 8.3 8.8 84 1.3 WSW 15 26 8 14 1007.0 1007.0 1.6
25/02:00am 11.4 8.7 9.1 86 1.1 WSW 13 20 7 11 1006.9 1006.9 1.6
25/01:30am 11.4 8.3 9.0 85 1.2 WSW 15 24 8 13 1006.9 1006.9 1.6
25/01:00am 11.7 9.1 9.4 86 1.2 WSW 13 20 7 11 1007.0 1007.0 1.6
25/12:30am 11.3 8.7 9.4 88 1.0 WSW 13 20 7 11 1006.9 1006.9 1.6
25/12:00am 11.3 8.9 9.9 91 0.7 W 13 22 7 12 1006.8 1006.8 1.6
 
Date/Time
CST
Temp
°C
App
Temp
°C
Dew
Point
°C
Rel
Hum
%
Delta-T
°C
Wind Press
QNH
hPa
Press
MSL
hPa
Rain since
9am
mm
Dir  Spd
km/h
Gust
km/h
Spd
kts
Gust
kts
24/11:30pm 12.1 9.6 9.7 85 1.2 W 13 22 7 12 1006.5 1006.5 1.2
24/11:00pm 12.0 8.7 9.4 84 1.3 W 17 26 9 14 1006.5 1006.5 1.2
24/10:30pm 12.3 9.5 9.9 85 1.2 W 15 26 8 14 1006.3 1006.3 1.2
24/10:00pm 11.9 9.0 9.8 87 1.1 W 15 28 8 15 1006.1 1006.1 1.2
24/09:30pm 12.3 9.2 10.2 87 1.1 W 17 30 9 16 1006.0 1006.0 1.2
24/09:00pm 12.1 8.9 10.0 87 1.1 W 17 26 9 14 1005.5 1005.5 1.2
24/08:30pm 12.1 9.1 10.5 90 0.8 W 17 28 9 15 1005.1 1005.1 1.2
24/08:00pm 12.0 7.5 9.9 87 1.1 W 24 39 13 21 1004.5 1004.5 1.2
24/07:30pm 12.9 8.3 9.5 80 1.7 W 24 39 13 21 1003.9 1003.9 0.8
24/07:00pm 12.7 8.5 9.9 83 1.4 W 22 33 12 18 1003.4 1003.4 0.8
24/06:30pm 13.0 8.1 10.0 82 1.5 W 26 43 14 23 1002.9 1002.9 0.8
24/06:00pm 13.4 7.3 9.6 78 2.0 W 32 50 17 27 1002.3 1002.3 0.8
24/05:58pm 13.4 7.3 9.6 78 1.9 W 32 50 17 27 1002.2 1002.2 0.8
24/05:30pm 13.6 8.3 9.8 78 2.0 W 28 43 15 23 1001.7 1001.7 0.8
24/05:00pm 13.8 8.2 10.2 79 1.9 W 30 50 16 27 1001.2 1001.2 0.8
24/04:34pm 13.4 8.4 10.8 84 1.4 W 28 48 15 26 1000.8 1000.8 0.8
24/04:30pm 13.6 8.1 10.6 82 1.6 W 30 46 16 25 1000.7 1000.7 0.8
24/04:03pm 14.8 9.3 10.4 75 2.3 W 30 50 16 27 1000.2 1000.2 0.6
24/04:00pm 14.9 8.8 10.5 75 2.3 W 33 50 18 27 1000.1 1000.1 0.6
24/03:30pm 14.7 8.8 10.3 75 2.3 WNW 32 50 17 27 999.7 999.7 0.6
24/03:04pm 14.9 8.6 10.9 77 2.1 WNW 35 56 19 30 999.3 999.3 0.6
24/03:00pm 15.4 9.3 11.6 78 2.1 WNW 35 52 19 28 999.4 999.4 0.6
24/02:53pm 15.1 9.3 11.5 79 1.9 WNW 33 52 18 28 999.3 999.3 0.6
24/02:30pm 14.6 8.2 12.1 85 1.4 WNW 37 54 20 29 999.1 999.1 0.6
24/02:01pm 14.5 9.0 12.0 85 1.4 WNW 32 50 17 27 998.9 998.9 0.6
24/02:00pm 14.6 9.1 12.3 86 1.3 WNW 33 50 18 27 998.9 998.9 0.6
24/01:34pm 14.9 8.6 10.9 77 2.1 WNW 35 57 19 31 998.8 998.8 0.2
24/01:30pm 15.4 8.8 11.4 77 2.2 WNW 37 54 20 29 998.8 998.8 0.2
24/01:01pm 16.0 9.2 12.0 77 2.2 WNW 39 59 21 32 998.8 998.8 0.2
24/01:00pm 15.4 8.0 11.2 76 2.2 WNW 41 59 22 32 998.8 998.8 0.2
24/12:47pm 15.4 8.6 11.8 79 1.9 WNW 39 59 21 32 998.8 998.8 0.2
24/12:30pm 14.6 7.4 11.9 84 1.5 NW 41 59 22 32 998.8 998.8 0.2
24/12:00pm 15.0 7.6 11.2 78 2.0 NW 41 63 22 34 998.9 998.9 0.0
24/11:35am 14.4 7.3 10.8 79 1.9 NW 39 57 21 31 998.8 998.8 0.0
24/11:30am 14.6 7.0 10.6 77 2.1 NW 41 59 22 32 998.7 998.7 0.0
24/11:00am 15.1 7.6 10.7 75 2.3 NW 41 61 22 33 998.7 998.7 0.0
24/10:30am 15.5 7.8 10.3 71 2.7 NW 41 65 22 35 998.9 998.9 0.0
24/10:00am 14.8 6.6 9.6 71 2.7 NW 43 61 23 33 998.7 998.7 0.0
24/09:38am 15.1 7.7 9.7 70 2.8 NW 39 57 21 31 998.8 998.8 0.0
24/09:30am 14.8 7.0 9.8 72 2.6 NW 41 59 22 32 998.8 998.8 0.0
24/09:07am 15.1 8.9 9.9 71 2.7 WNW 33 54 18 29 998.8 998.8 0.0
24/09:00am 14.8 7.2 9.2 69 2.9 WNW 39 52 21 28 998.7 998.7 4.6
24/08:32am 14.7 8.0 9.7 72 2.6 WNW 35 54 19 29 998.6 998.6 4.6
24/08:30am 14.9 7.8 9.7 71 2.7 WNW 37 54 20 29 998.6 998.6 4.6
24/08:01am 12.5 5.8 9.7 83 1.4 WNW 35 56 19 30 998.4 998.4 4.6
24/08:00am 12.6 5.5 9.6 82 1.5 WNW 37 56 20 30 998.5 998.5 4.6
24/07:30am 14.0 7.5 8.8 71 2.6 WNW 33 54 18 29 998.2 998.2 4.6
24/07:01am 13.3 6.2 8.2 71 2.5 WNW 35 56 19 30 998.1 998.1 4.6
24/07:00am 13.4 5.9 8.0 70 2.7 WNW 37 56 20 30 998.0 998.0 4.6
24/06:38am 13.5 6.7 7.7 68 2.9 WNW 33 52 18 28 998.0 998.0 4.6
24/06:30am 13.2 6.9 7.4 68 2.8 WNW 30 44 16 24 998.0 998.0 4.6
24/06:00am 13.1 6.9 7.8 70 2.6 WNW 30 50 16 27 997.9 997.9 4.6
24/05:40am 12.9 6.2 7.4 69 2.7 WNW 32 54 17 29 997.7 997.7 4.6
24/05:30am 12.8 6.1 7.5 70 2.6 WNW 32 48 17 26 997.7 997.7 4.6
24/05:13am 12.6 6.3 7.5 71 2.5 WNW 30 56 16 30 997.5 997.5 4.6
24/05:00am 12.6 5.3 7.3 70 2.6 WNW 35 52 19 28 997.5 997.5 4.6
24/04:47am 12.3 6.4 9.1 81 1.6 WNW 30 48 16 26 997.6 997.6 4.6
24/04:30am 12.2 5.6 8.7 79 1.8 WNW 33 50 18 27 997.6 997.6 4.6
24/04:06am 12.5 6.9 8.8 78 1.8 WNW 28 46 15 25 997.4 997.4 4.6
24/04:00am 12.0 7.3 9.4 84 1.3 WNW 24 39 13 21 997.4 997.4 4.6
24/03:30am 11.6 6.4 7.1 74 2.2 WNW 24 41 13 22 997.4 997.4 4.4
24/03:03am 12.6 6.7 10.5 87 1.1 WNW 32 54 17 29 997.5 997.5 4.4
24/03:00am 12.7 6.9 10.8 88 1.0 NW 32 46 17 25 997.5 997.5 4.4
24/02:30am 10.9 6.6 9.2 89 0.9 WNW 22 35 12 19 997.8 997.8 2.2
24/02:00am 10.4 5.2 8.8 90 0.8 WNW 26 39 14 21 998.1 998.1 1.8
24/01:30am 11.1 5.6 9.0 87 1.1 W 28 44 15 24 998.4 998.4 1.4
24/01:08am 12.7 6.5 9.3 80 1.7 NW 32 61 17 33 998.6 998.6 1.0
24/01:00am 13.2 7.8 10.9 86 1.2 NW 30 46 16 25 998.4 998.4 0.8
24/12:30am 13.1 7.6 9.2 77 2.0 NW 28 39 15 21 998.8 998.8 0.8
24/12:00am 13.4 8.0 10.8 84 1.4 WNW 30 43 16 23 999.3 999.3 0.6
 
Date/Time
CST
Temp
°C
App
Temp
°C
Dew
Point
°C
Rel
Hum
%
Delta-T
°C
Wind Press
QNH
hPa
Press
MSL
hPa
Rain since
9am
mm
Dir  Spd
km/h
Gust
km/h
Spd
kts
Gust
kts
23/11:30pm 14.4 9.2 10.4 77 2.1 WNW 28 44 15 24 999.4 999.4 0.6
23/11:00pm 14.0 9.3 10.8 81 1.7 WNW 26 35 14 19 999.6 999.6 0.6
23/10:30pm 13.9 8.0 10.3 79 1.9 WNW 32 43 17 23 999.7 999.7 0.6
23/10:00pm 13.4 8.4 10.8 84 1.4 WNW 28 41 15 22 1000.0 1000.0 0.6
23/09:32pm 13.9 7.6 8.9 72 2.5 WNW 32 50 17 27 1000.0 1000.0 0.6
23/09:30pm 14.0 7.0 8.6 70 2.7 WNW 35 52 19 28 1000.0 1000.0 0.6
23/09:00pm 14.0 9.1 10.0 77 2.1 WNW 26 39 14 21 1000.0 1000.0 0.6
23/08:30pm 13.8 8.7 10.6 81 1.7 WNW 28 41 15 22 999.7 999.7 0.6
23/08:13pm 13.6 8.6 10.8 83 1.5 WNW 28 48 15 26 999.7 999.7 0.6
23/08:00pm 13.5 8.6 11.4 87 1.1 WNW 28 44 15 24 999.7 999.7 0.6
23/07:35pm 14.6 9.6 11.0 79 1.9 WNW 28 46 15 25 999.3 999.3 0.6
23/07:30pm 14.5 9.5 10.9 79 1.9 WNW 28 43 15 23 999.3 999.3 0.6
23/07:10pm 14.5 9.1 10.9 79 1.9 WNW 30 48 16 26 998.9 998.9 0.6
23/07:00pm 14.3 9.3 10.9 80 1.8 WNW 28 44 15 24 998.8 998.8 0.6
23/06:39pm 14.3 9.0 11.3 82 1.6 WNW 30 50 16 27 998.5 998.5 0.6
23/06:30pm 14.4 9.5 11.4 82 1.6 WNW 28 43 15 23 998.4 998.4 0.6
23/06:04pm 14.6 8.9 11.2 80 1.8 WNW 32 52 17 28 998.1 998.1 0.6
23/06:00pm 14.6 8.3 11.0 79 1.9 WNW 35 52 19 28 998.2 998.2 0.6
23/05:44pm 14.7 9.0 11.3 80 1.8 WNW 32 50 17 27 997.9 997.9 0.6
23/05:30pm 14.8 9.9 11.4 80 1.8 WNW 28 43 15 23 997.8 997.8 0.6
23/05:00pm 15.4 9.8 11.4 77 2.1 WNW 32 57 17 31 997.1 997.1 0.6
23/04:53pm 15.4 9.5 11.2 76 2.2 WNW 33 57 18 31 997.1 997.1 0.6
23/04:30pm 15.9 10.2 11.7 76 2.3 WNW 33 48 18 26 996.9 996.9 0.6
23/04:00pm 16.2 9.2 11.4 73 2.6 WNW 39 59 21 32 996.6 996.6 0.6
23/03:30pm 17.0 12.1 12.5 75 2.5 WNW 30 50 16 27 996.5 996.5 0.6
23/03:00pm 17.6 13.0 13.5 77 2.3 WNW 30 43 16 23 995.9 995.9 0.6
23/02:46pm 17.6 12.3 13.1 75 2.5 WNW 33 56 18 30 995.8 995.8 0.6
23/02:30pm 17.6 12.5 13.1 75 2.5 NW 32 46 17 25 995.7 995.7 0.6
23/02:00pm 15.7 11.5 13.5 87 1.2 NW 28 41 15 22 995.6 995.6 0.6
23/01:30pm 16.2 12.9 14.0 87 1.3 NW 24 35 13 19 995.4 995.4 0.6
23/01:00pm 15.9 12.5 13.7 87 1.2 WNW 24 32 13 17 994.9 994.9 0.6
23/12:30pm 16.4 16.0 14.2 87 1.3 WNW 9 17 5 9 994.5 994.5 0.6
23/12:00pm 16.6 14.9 12.6 77 2.2 WSW 13 24 7 13 994.7 994.7 0.2
23/11:30am 19.0 17.6 13.4 70 3.2 SW 13 22 7 12 993.8 993.8 0.2
23/11:00am 18.3 18.1 13.0 71 3.0 SSW 6 13 3 7 993.7 993.7 0.0
23/10:30am 18.1 18.8 13.4 74 2.7 ENE 2 6 1 3 993.7 993.7 0.0
23/10:00am 16.6 16.1 13.9 84 1.5 ENE 9 11 5 6 994.0 994.0 0.0
23/09:37am 16.5 15.6 13.6 83 1.6 NNE 11 17 6 9 993.1 993.1 0.0
23/09:30am 16.7 16.4 13.4 81 1.9 N 7 13 4 7 995.8 995.8 0.0
23/09:00am 15.9 16.2 13.4 85 1.4 NE 4 7 2 4 995.9 995.9 0.0
23/08:57am 15.7 16.0 13.4 86 1.3 ENE 4 6 2 3 995.3 995.3 0.0
23/08:30am 14.8 13.9 13.8 94 0.6 ESE 11 19 6 10 993.2 993.2 0.0
23/08:00am 14.0 12.6 13.5 97 0.3 E 13 20 7 11 994.5 994.5 0.0
23/07:30am 13.5 12.0 13.2 98 0.2 E 13 20 7 11 994.9 994.9 0.0
23/07:00am 13.2 12.0 12.9 98 0.2 E 11 17 6 9 996.0 996.0 0.0
23/06:30am 13.0 13.1 12.7 98 0.2 NNE 4 7 2 4 996.3 996.3 0.0
23/06:00am 13.2 12.8 12.9 98 0.2 SE 7 13 4 7 996.6 996.6 0.0
23/05:30am 12.8 11.5 12.5 98 0.2 E 11 17 6 9 995.7 995.7 0.0
23/05:00am 12.8 11.9 12.5 98 0.2 E 9 13 5 7 997.0 997.0 0.0
23/04:46am 12.5 11.5 12.2 98 0.2 ESE 9 13 5 7 997.4 997.4 0.0
23/04:30am 12.6 12.9 12.3 98 0.2 SSW 2 6 1 3 999.4 999.4 0.0
23/04:00am 12.7 12.6 12.2 97 0.3 SSW 4 6 2 3 999.1 999.1 0.0
23/03:30am 14.0 13.8 13.7 98 0.2 SW 7 13 4 7 999.2 999.2 0.0
23/03:00am 13.4 13.6 13.1 98 0.2 NW 4 7 2 4 999.7 999.7 0.0
23/02:30am 12.9 12.4 12.6 98 0.2 W 7 11 4 6 1000.0 1000.0 0.0
23/02:00am 11.6 11.6 11.1 97 0.3 NNE 2 6 1 3 999.0 999.0 0.0
23/01:30am 12.2 11.5 11.9 98 0.2 NE 7 11 4 6 998.9 998.9 0.0
23/01:00am 10.8 9.2 10.3 97 0.3 NE 9 11 5 6 999.3 999.3 0.0
23/12:30am 10.9 10.6 10.1 95 0.4 NW 2 4 1 2 1000.7 1000.7 0.0

Other Formats:

Comma delimited format used in spreadsheet applications
http://www.bom.gov.au/fwo/IDS60801/IDS60801.95816.axf

JavaScript Object Notation format (JSON) in row-major order
http://www.bom.gov.au/fwo/IDS60801/IDS60801.95816.json